Forside
METAR-TAF:

METAR-TAF

Lufthavne :

New Delhi, Indien

Breddekreds: 28-34N, længdekreds: 077-07E, højde: 220 m

Aktuelle vejr

Denne rapport blev lavet for 21 minutter siden, kl. 11:00 UTC
Vind 4 kt fra nord
Temperatur 32°C
Fugtighed 24%
Tryk 1009 hPa
Sigt: 3500 m
tåge/dis

METAR: VIDP 171100Z 35004KT 3500 HZ NSC 32/09 Q1009 NOSIG

Tid: 16:51 (11:21 UTC)

Vejrudsigter

Denne rapport blev lavet for 3 timer og 21 minutter siden, kl. 08:00 UTC
Foreløbig gælder fra 17 på 09 UTC til 17 på 18 UTC
Vind 4 kt fra vest
Sigt: 3500 m
tåge/dis
ændring
fra 17 på 12 UTC til 17 på 14 UTC
Sigt: 2500 m
Nogle få skyer i en højde af 10000 ft
tåge/dis

TAF: VIDP 170800Z 1709/1718 27004KT 3500 HZ NSC BECMG 1712/1714 2500 HZ FEW100

Vejrobservationer og prognoser fra mere end 4000 lufthavne (METAR og TAF).

De gule og røde prikker repræsenterer de meteorologiske stationer.

Flyt musen over at se navnet på stationen.

Så klik over at se vejr observationer og prognoser.

At skifte det kort: Klik på de grønne knapper med et sort kors for at zoome ind; på den grønne knap med en bindestreg for at zoome ud; eller på de grønne pile for tilstødende kort.


METAR-TAF: